Time;durP1;ratioP1;P1;durP2;ratioP2;P2;SDS_P1;SDS_P2;PMS_P1;PMS_P2;Temp;Humidity;BMP_temperature;BMP_pressure;BME280_temperature;BME280_humidity;BME280_pressure;Samples;Min_cycle;Max_cycle;Signal;HPM_P1;HPM_P2
2022/09/07 00:02:19;;;;;;;12.50;3.30;;;;;;;18.85;62.17;101447.66;5190543;28;20524;-42
2022/09/07 00:04:52;;;;;;;8.75;3.92;;;;;;;18.78;63.19;101454.81;5191075;28;20052;-43
2022/09/07 00:07:26;;;;;;;20.75;4.85;;;;;;;18.63;63.63;101444.09;5202315;28;20040;-41
2022/09/07 00:13:47;;;;;;;10.93;4.32;;;;;;;18.64;63.60;101435.06;5189147;28;20428;-43
2022/09/07 00:16:22;;;;;;;16.55;3.97;;;;;;;18.64;63.44;101431.53;5199143;28;20048;-41
2022/09/07 00:18:56;;;;;;;13.68;3.83;;;;;;;18.59;63.18;101426.78;5192403;28;20187;-52
2022/09/07 00:21:29;;;;;;;15.10;4.30;;;;;;;18.64;63.34;101423.53;5198171;28;20063;-42
2022/09/07 00:24:03;;;;;;;15.27;4.47;;;;;;;18.58;63.03;101421.59;5196902;28;20123;-42
2022/09/07 00:26:36;;;;;;;7.57;3.45;;;;;;;18.65;63.05;101425.19;5172743;28;20045;-44
2022/09/07 00:29:10;;;;;;;8.88;3.55;;;;;;;18.64;62.97;101410.16;5197217;28;20464;-44
2022/09/07 00:31:43;;;;;;;6.45;3.03;;;;;;;18.59;62.94;101391.19;5204479;28;20040;-41
2022/09/07 00:34:15;;;;;;;7.07;3.03;;;;;;;18.62;63.09;101386.28;5206520;28;20058;-45
2022/09/07 00:36:48;;;;;;;8.77;3.50;;;;;;;18.61;63.08;101378.41;5210849;28;20422;-46
2022/09/07 00:39:22;;;;;;;9.18;3.03;;;;;;;18.55;63.16;101380.03;5209192;28;20048;-43
2022/09/07 00:41:54;;;;;;;9.98;3.05;;;;;;;18.41;64.42;101389.72;5218080;28;20401;-44
2022/09/07 00:45:08;;;;;;;8.55;2.78;;;;;;;18.27;64.35;101401.31;5203853;28;20045;-43
2022/09/07 00:47:51;;;;;;;10.43;3.80;;;;;;;18.23;64.06;101380.47;5130125;28;20152;-42
2022/09/07 00:50:28;;;;;;;9.77;3.30;;;;;;;18.26;63.92;101377.41;5153965;28;20433;-47
2022/09/07 00:53:06;;;;;;;4.05;2.85;;;;;;;18.20;64.63;101362.94;5177811;28;20397;-43
2022/09/07 00:55:44;;;;;;;9.00;3.03;;;;;;;18.07;66.35;101339.56;5202814;28;20435;-43
2022/09/07 00:58:17;;;;;;;9.93;3.60;;;;;;;17.84;68.58;101320.97;5197729;28;20573;-44
2022/09/07 01:00:51;;;;;;;8.82;3.17;;;;;;;17.67;69.37;101295.44;5200798;28;20075;-41
2022/09/07 01:03:27;;;;;;;16.10;4.63;;;;;;;17.59;70.21;101284.84;5204589;28;20036;-45
2022/09/07 01:06:08;;;;;;;12.98;3.15;;;;;;;17.44;70.43;101276.84;5202784;28;20048;-43
2022/09/07 01:08:42;;;;;;;7.43;3.20;;;;;;;17.41;70.66;101271.88;5202970;28;20273;-45
2022/09/07 01:11:17;;;;;;;6.28;2.80;;;;;;;17.37;70.54;101255.38;5213374;28;20070;-43
2022/09/07 01:13:51;;;;;;;6.90;2.97;;;;;;;17.33;70.99;101256.75;5204704;28;20513;-40
2022/09/07 01:16:40;;;;;;;7.47;2.85;;;;;;;17.33;71.03;101256.75;5203428;28;20051;-41
2022/09/07 01:19:40;;;;;;;10.60;2.75;;;;;;;17.32;71.07;101248.94;5200727;28;20113;-43
2022/09/07 01:22:34;;;;;;;5.32;2.38;;;;;;;17.33;70.76;101251.41;5196241;28;20044;-47
2022/09/07 01:25:12;;;;;;;5.80;1.98;;;;;;;17.30;70.96;101246.44;5203787;28;20125;-46
2022/09/07 01:28:07;;;;;;;5.82;1.70;;;;;;;17.24;70.68;101231.16;5183289;28;20504;-48
2022/09/07 01:30:46;;;;;;;4.70;1.92;;;;;;;17.38;70.45;101243.69;5189161;28;20120;-37
2022/09/07 01:33:40;;;;;;;9.38;3.67;;;;;;;17.48;69.94;101260.25;5209826;28;20045;-42
2022/09/07 01:36:24;;;;;;;4.03;1.48;;;;;;;17.56;69.28;101261.16;5198263;28;20388;-43
2022/09/07 01:38:59;;;;;;;;;;;;;;;17.66;68.97;101265.22;5191388;28;20110;-46
2022/09/07 01:41:38;;;;;;;3.75;1.30;;;;;;;17.69;68.63;101250.69;5196368;28;21015;-41
2022/09/07 01:44:18;;;;;;;4.50;1.23;;;;;;;17.78;68.38;101262.94;5193186;28;20071;-41
2022/09/07 01:46:54;;;;;;;4.47;1.75;;;;;;;17.77;67.96;101247.91;5194621;28;20753;-48
2022/09/07 01:49:33;;;;;;;2.50;1.52;;;;;;;17.82;67.80;101256.19;5195749;28;20148;-44
2022/09/07 01:52:13;;;;;;;4.75;1.25;;;;;;;17.80;67.70;101242.19;5198839;28;20056;-42
2022/09/07 01:54:51;;;;;;;2.50;1.20;;;;;;;17.73;67.69;101235.91;5198256;28;20518;-46
2022/09/07 01:57:33;;;;;;;1.40;1.30;;;;;;;17.77;67.76;101242.56;5199583;28;20044;-44
2022/09/07 02:00:12;;;;;;;2.27;1.37;;;;;;;17.75;67.63;101244.59;5201701;28;20500;-44
2022/09/07 02:02:51;;;;;;;1.95;1.23;;;;;;;17.68;67.39;101238.31;5197712;28;20044;-43
2022/09/07 02:05:28;;;;;;;3.15;1.30;;;;;;;17.75;67.12;101244.59;5204378;28;20040;-44
2022/09/07 02:08:07;;;;;;;1.58;1.30;;;;;;;17.84;66.96;101245.31;5202323;28;21667;-45
2022/09/07 02:10:44;;;;;;;1.90;1.70;;;;;;;17.85;66.68;101250.50;5176784;28;20050;-36
2022/09/07 02:13:22;;;;;;;2.72;1.60;;;;;;;17.74;66.94;101237.56;5193908;28;20850;-46
2022/09/07 02:16:00;;;;;;;3.42;1.30;;;;;;;17.76;67.36;101251.56;5201263;28;20044;-43
2022/09/07 02:18:39;;;;;;;1.98;1.30;;;;;;;17.66;67.25;101257.22;5202676;28;20439;-43
2022/09/07 02:21:35;;;;;;;6.45;2.30;;;;;;;17.69;67.13;101267.53;5202454;28;20091;-42
2022/09/07 02:24:12;;;;;;;2.78;1.85;;;;;;;17.66;66.86;101261.72;5195212;28;20500;-42
2022/09/07 02:26:50;;;;;;;2.08;1.77;;;;;;;17.74;66.71;101264.28;5199092;28;20443;-45
2022/09/07 02:29:22;;;;;;;1.52;1.42;;;;;;;17.73;66.68;101251.94;5202391;28;20494;-45
2022/09/07 02:31:56;;;;;;;4.28;2.00;;;;;;;17.77;66.45;101263.94;5203980;28;20486;-44
2022/09/07 02:34:29;;;;;;;9.07;1.77;;;;;;;17.71;66.53;101256.63;5201478;28;20079;-44
2022/09/07 02:37:03;;;;;;;3.90;1.50;;;;;;;17.75;66.31;101260.63;5204310;28;20049;-45
2022/09/07 02:39:37;;;;;;;1.92;1.70;;;;;;;17.77;66.16;101273.78;5200287;28;20045;-45
2022/09/07 02:42:10;;;;;;;4.45;1.80;;;;;;;17.75;66.11;101260.63;5204940;28;20045;-44
2022/09/07 02:44:44;;;;;;;;;;;;;;;17.81;65.88;101262.56;5203113;28;20202;-45
2022/09/07 02:47:31;;;;;;;2.08;1.33;;;;;;;17.80;65.72;101257.41;5203921;28;20360;-46
2022/09/07 02:50:37;;;;;;;7.13;3.17;;;;;;;17.86;65.72;101278.84;5198938;28;20570;-45
2022/09/07 02:53:36;;;;;;;3.92;1.70;;;;;;;17.84;65.43;101264.03;5202283;28;20515;-49
2022/09/07 02:56:25;;;;;;;4.30;1.65;;;;;;;17.88;65.41;101278.69;5204413;28;20045;-45
2022/09/07 02:59:09;;;;;;;4.00;2.35;;;;;;;17.96;65.35;101295.44;5199071;28;20041;-46
2022/09/07 03:01:54;;;;;;;4.47;2.38;;;;;;;18.04;65.10;101297.16;5201441;28;20131;-43
2022/09/07 03:04:39;;;;;;;3.05;1.85;;;;;;;18.02;64.74;101288.50;5206266;28;20048;-44
2022/09/07 03:07:16;;;;;;;2.08;1.67;;;;;;;18.12;64.82;101280.19;5199103;28;20408;-45
2022/09/07 03:09:52;;;;;;;2.63;2.15;;;;;;;18.09;64.64;101280.56;5204108;28;20075;-43
2022/09/07 03:12:38;;;;;;;3.10;1.90;;;;;;;18.10;64.59;101284.91;5205708;28;20176;-43
2022/09/07 03:15:12;;;;;;;2.67;2.40;;;;;;;18.16;64.56;101289.50;5198076;28;20504;-41
2022/09/07 03:17:46;;;;;;;3.55;2.63;;;;;;;18.16;64.38;101279.63;5201630;28;20033;-42
2022/09/07 03:20:21;;;;;;;7.13;1.88;;;;;;;18.25;64.46;101277.66;5200872;28;20080;-43
2022/09/07 03:22:54;;;;;;;5.07;1.95;;;;;;;18.14;64.28;101254.09;5202578;28;20064;-45
2022/09/07 03:25:26;;;;;;;6.32;2.42;;;;;;;18.14;64.29;101254.09;5202747;28;20110;-42
2022/09/07 03:27:59;;;;;;;7.15;2.88;;;;;;;18.14;64.69;101249.56;5203776;28;20048;-44
2022/09/07 03:30:31;;;;;;;4.13;2.35;;;;;;;18.09;64.61;101251.19;5198828;28;20800;-43
2022/09/07 03:33:05;;;;;;;3.20;2.58;;;;;;;18.01;64.96;101238.75;5200198;28;20515;-46
2022/09/07 03:35:38;;;;;;;;;;;;;;;18.01;64.97;101240.59;5206306;28;20435;-45
2022/09/07 03:38:11;;;;;;;3.58;2.30;;;;;;;17.97;64.79;101240.97;5214354;28;19943;-46
2022/09/07 03:40:43;;;;;;;6.80;2.38;;;;;;;17.95;64.99;101250.19;5203147;28;20118;-42
2022/09/07 03:43:16;;;;;;;6.45;2.33;;;;;;;17.84;64.95;101238.16;5199334;28;20329;-45
2022/09/07 03:45:48;;;;;;;5.93;2.70;;;;;;;17.87;64.91;101248.47;5205888;28;20147;-43
2022/09/07 03:48:21;;;;;;;5.43;3.20;;;;;;;17.75;64.93;101229.38;5200176;28;20051;-43
2022/09/07 03:51:00;;;;;;;4.25;3.70;;;;;;;17.79;64.92;101237.06;5200265;28;20098;-42
2022/09/07 03:53:33;;;;;;;6.30;3.92;;;;;;;17.66;64.97;101219.00;5197794;28;20500;-43
2022/09/07 03:56:08;;;;;;;5.80;3.80;;;;;;;17.73;64.94;101235.91;5197288;28;20138;-47
2022/09/07 03:58:41;;;;;;;8.88;3.83;;;;;;;17.70;65.02;101237.13;5193689;28;20346;-41
2022/09/07 04:01:17;;;;;;;4.15;3.28;;;;;;;17.63;65.33;101240.72;5200314;28;20430;-43
2022/09/07 04:03:49;;;;;;;4.05;3.00;;;;;;;17.65;65.00;101238.69;5198616;28;20548;-47
2022/09/07 04:06:23;;;;;;;6.03;3.33;;;;;;;17.62;65.02;101239.06;5199782;28;21065;-45
2022/09/07 04:08:56;;;;;;;6.75;2.60;;;;;;;17.63;65.08;101232.72;5202141;28;20044;-43
2022/09/07 04:11:28;;;;;;;7.75;3.20;;;;;;;17.63;65.03;101227.38;5200283;28;20055;-42
2022/09/07 04:14:01;;;;;;;4.22;2.35;;;;;;;17.64;65.03;101226.34;5202495;28;20497;-43
2022/09/07 04:16:34;;;;;;;6.75;2.85;;;;;;;17.60;65.06;101230.44;5199245;28;20067;-43
2022/09/07 04:19:06;;;;;;;3.67;2.50;;;;;;;17.49;65.24;101208.50;5199286;28;20586;-44
2022/09/07 04:21:44;;;;;;;7.57;3.05;;;;;;;17.60;65.06;101215.22;5202233;28;20067;-45
2022/09/07 04:24:18;;;;;;;4.55;1.95;;;;;;;17.58;64.94;101211.06;5203289;28;20051;-42
2022/09/07 04:26:51;;;;;;;5.38;2.60;;;;;;;17.60;64.99;101217.06;5206974;28;20507;-45
2022/09/07 04:29:23;;;;;;;;;;;;;;;17.60;65.00;101209.88;5207012;28;20067;-42
2022/09/07 04:31:58;;;;;;;12.45;2.63;;;;;;;17.46;65.03;101192.03;5209005;28;19928;-41
2022/09/07 04:34:30;;;;;;;9.38;3.70;;;;;;;17.58;64.86;101203.88;5221730;28;20093;-42
2022/09/07 04:37:05;;;;;;;8.35;3.47;;;;;;;17.49;64.99;101197.81;5225392;28;20044;-43
2022/09/07 04:39:38;;;;;;;8.07;3.58;;;;;;;17.48;65.30;101198.03;5225103;27;20119;-44
2022/09/07 04:42:10;;;;;;;7.60;3.05;;;;;;;17.49;65.34;101200.50;5221775;28;20620;-43
2022/09/07 04:44:43;;;;;;;6.72;3.45;;;;;;;17.47;65.19;101201.72;5216375;28;20040;-43
2022/09/07 04:47:16;;;;;;;6.55;3.88;;;;;;;17.40;65.21;101193.59;5218924;28;22013;-44
2022/09/07 04:49:51;;;;;;;6.75;3.50;;;;;;;17.34;65.34;101189.00;5213467;28;20523;-43
2022/09/07 04:52:25;;;;;;;9.27;4.38;;;;;;;17.39;65.29;101207.97;5224722;28;20535;-42
2022/09/07 04:54:57;;;;;;;8.43;5.32;;;;;;;17.39;65.32;101213.31;5223934;28;20488;-43
2022/09/07 04:57:30;;;;;;;11.15;5.55;;;;;;;17.37;65.55;101219.84;5193674;28;21322;-43
2022/09/07 05:00:05;;;;;;;12.27;5.32;;;;;;;17.28;65.31;101213.75;5204660;28;20488;-46
2022/09/07 05:02:38;;;;;;;13.75;6.68;;;;;;;17.39;65.17;101245.34;5204681;28;20052;-42
2022/09/07 05:05:10;;;;;;;10.65;5.93;;;;;;;17.32;65.25;101240.94;5202487;28;20397;-31
2022/09/07 05:07:45;;;;;;;9.30;4.22;;;;;;;17.39;65.30;101242.69;5202891;28;20400;-47
2022/09/07 05:10:18;;;;;;;6.60;3.75;;;;;;;17.43;65.25;101246.63;5198080;28;20041;-43
2022/09/07 05:12:51;;;;;;;6.13;4.13;;;;;;;17.45;65.13;101239.28;5187804;28;20064;-42
2022/09/07 05:15:23;;;;;;;5.97;3.67;;;;;;;17.48;65.21;101232.72;5202039;28;20454;-47
2022/09/07 05:17:56;;;;;;;10.20;4.03;;;;;;;17.43;65.09;101225.25;5203574;28;20130;-40
2022/09/07 05:20:28;;;;;;;7.25;3.78;;;;;;;17.50;65.18;101239.56;5199949;28;20543;-42
2022/09/07 05:23:02;;;;;;;8.30;4.22;;;;;;;17.50;65.25;101238.72;5202293;28;20057;-43
2022/09/07 05:25:42;;;;;;;6.63;3.67;;;;;;;17.48;65.21;101238.06;5218127;28;20047;-47
2022/09/07 05:28:14;;;;;;;7.30;4.00;;;;;;;17.54;65.07;101242.69;5198773;28;20439;-49
2022/09/07 05:30:47;;;;;;;7.70;4.43;;;;;;;17.55;65.06;101240.81;5199905;28;20532;-45
2022/09/07 05:33:19;;;;;;;5.63;3.95;;;;;;;17.63;65.31;101251.41;5208007;28;20583;-44
2022/09/07 05:35:57;;;;;;;5.03;3.78;;;;;;;17.59;65.20;101239.44;5209829;28;20443;-41
2022/09/07 05:38:31;;;;;;;3.88;2.70;;;;;;;17.58;65.01;101232.44;5203458;28;20428;-41
2022/09/07 05:41:12;;;;;;;4.43;2.55;;;;;;;17.48;65.21;101220.22;5201035;28;20052;-43
2022/09/07 05:43:45;;;;;;;7.13;2.80;;;;;;;17.59;65.09;101240.28;5200228;28;20056;-43
2022/09/07 05:46:18;;;;;;;9.95;3.03;;;;;;;17.56;65.12;101223.78;5205083;28;20105;-39
2022/09/07 05:48:50;;;;;;;;;;;;;;;17.63;65.11;101238.06;5203225;28;20059;-42
2022/09/07 05:51:23;;;;;;;7.88;4.55;;;;;;;17.55;64.95;101214.13;5206906;28;20319;-40
2022/09/07 05:53:57;;;;;;;6.97;4.15;;;;;;;17.67;64.82;101236.66;5201843;28;20375;-40
2022/09/07 05:56:30;;;;;;;7.18;4.53;;;;;;;17.73;64.79;101241.25;5197533;28;20067;-39
2022/09/07 05:59:02;;;;;;;6.50;3.90;;;;;;;17.82;64.57;101245.50;5201120;28;20045;-40
2022/09/07 06:01:35;;;;;;;8.80;3.83;;;;;;;17.88;64.38;101244.78;5211190;28;20052;-40
2022/09/07 06:04:07;;;;;;;12.00;4.72;;;;;;;17.96;64.18;101242.00;5201017;28;20376;-44
2022/09/07 06:06:40;;;;;;;8.52;4.22;;;;;;;18.05;64.15;101249.88;5178335;28;20061;-46
2022/09/07 06:09:14;;;;;;;5.25;3.67;;;;;;;18.16;64.01;101249.38;5174948;28;20045;-48
2022/09/07 06:11:46;;;;;;;11.27;4.70;;;;;;;18.30;63.94;101251.19;5183404;28;20126;-42
2022/09/07 06:14:19;;;;;;;3.63;3.00;;;;;;;18.68;63.25;101245.56;5181314;28;20398;-40
2022/09/07 06:16:52;;;;;;;9.02;4.82;;;;;;;18.86;62.90;101255.81;5184534;28;20063;-40
2022/09/07 06:19:24;;;;;;;;;;;;;;;18.89;62.97;101258.09;5188408;28;20044;-43
2022/09/07 06:21:57;;;;;;;10.18;5.40;;;;;;;18.83;63.14;101256.22;5191148;28;20256;-43
2022/09/07 06:24:31;;;;;;;11.65;6.35;;;;;;;18.89;63.01;101256.28;5190660;28;20048;-40
2022/09/07 06:27:03;;;;;;;9.43;5.85;;;;;;;19.09;62.94;101259.06;5191965;28;20473;-45
2022/09/07 06:29:36;;;;;;;12.05;4.50;;;;;;;19.94;62.32;101250.88;5187096;28;20041;-41
2022/09/07 06:32:08;;;;;;;10.23;4.95;;;;;;;21.34;60.69;101254.47;5181832;28;20041;-44
2022/09/07 06:34:41;;;;;;;12.05;4.40;;;;;;;22.58;59.48;101260.47;5183782;28;20413;-41
2022/09/07 06:37:13;;;;;;;9.85;3.50;;;;;;;23.72;58.02;101261.88;5183325;28;20067;-42
2022/09/07 06:39:48;;;;;;;7.20;3.78;;;;;;;24.84;56.80;101256.72;5187059;28;20087;-43
2022/09/07 06:42:20;;;;;;;8.15;4.10;;;;;;;25.93;55.79;101263.41;5187702;28;20052;-40
2022/09/07 06:44:53;;;;;;;6.50;3.33;;;;;;;26.83;54.38;101265.25;5186733;28;20413;-41
2022/09/07 06:47:25;;;;;;;8.07;3.65;;;;;;;28.28;52.44;101261.38;5184066;28;20132;-42
2022/09/07 06:49:58;;;;;;;12.70;3.40;;;;;;;29.75;50.85;101268.84;5189735;28;20139;-42
2022/09/07 06:52:30;;;;;;;6.47;2.80;;;;;;;30.69;49.23;101274.16;5191536;28;22524;-46
2022/09/07 06:55:05;;;;;;;7.15;2.17;;;;;;;31.60;48.11;101267.69;5188497;28;20129;-43
2022/09/07 06:57:37;;;;;;;5.97;1.90;;;;;;;32.47;46.50;101280.84;5190066;28;20113;-44
2022/09/07 07:00:11;;;;;;;5.07;2.65;;;;;;;33.31;45.18;101283.31;5183759;28;20095;-42
2022/09/07 07:02:44;;;;;;;6.10;2.28;;;;;;;34.01;43.60;101293.63;5188909;28;20206;-46
2022/09/07 07:05:16;;;;;;;;;;;;;;;34.51;42.12;101293.97;5196614;28;20044;-42
2022/09/07 07:07:49;;;;;;;4.05;2.00;;;;;;;35.05;40.13;101299.91;5199850;28;20391;-47
2022/09/07 07:10:22;;;;;;;4.85;2.05;;;;;;;34.86;39.57;101297.22;5200908;28;20087;-45
2022/09/07 07:12:56;;;;;;;6.30;2.53;;;;;;;34.78;38.92;101296.00;5205413;28;20194;-44
2022/09/07 07:15:29;;;;;;;6.15;1.60;;;;;;;35.22;38.01;101289.16;5202361;28;20049;-44
2022/09/07 07:18:02;;;;;;;4.00;1.55;;;;;;;35.59;35.68;101295.56;5204534;28;20534;-46
2022/09/07 07:20:36;;;;;;;4.32;2.03;;;;;;;35.42;35.60;101293.41;5204531;28;20123;-44
2022/09/07 07:23:10;;;;;;;7.82;1.70;;;;;;;34.99;35.84;101312.09;5207668;28;20048;-47
2022/09/07 07:25:44;;;;;;;7.30;1.75;;;;;;;35.02;35.61;101308.72;5204039;28;20075;-43
2022/09/07 07:28:16;;;;;;;6.22;1.63;;;;;;;34.65;34.60;101302.25;5207199;28;20493;-43
2022/09/07 07:30:53;;;;;;;8.05;2.33;;;;;;;34.55;34.99;101302.44;5208993;28;20075;-49
2022/09/07 07:33:47;;;;;;;10.90;2.75;;;;;;;34.74;34.83;101300.44;5205524;28;20129;-44
2022/09/07 07:36:21;;;;;;;9.93;1.80;;;;;;;34.82;34.59;101297.03;5201038;28;20509;-45
2022/09/07 07:38:57;;;;;;;2.88;1.70;;;;;;;34.63;34.59;101304.50;5204464;28;20095;-46
2022/09/07 07:41:32;;;;;;;5.85;2.08;;;;;;;34.68;34.06;101311.81;5208773;28;20620;-44
2022/09/07 07:44:05;;;;;;;3.33;1.83;;;;;;;34.16;34.40;101295.34;5207428;28;20124;-51
2022/09/07 07:46:37;;;;;;;3.78;1.88;;;;;;;34.08;34.28;101304.25;5205624;28;20049;-45
2022/09/07 07:49:09;;;;;;;;;;;;;;;33.93;34.69;101308.81;5206808;28;20051;-43
2022/09/07 07:51:42;;;;;;;3.28;1.70;;;;;;;33.80;34.79;101292.31;5203021;28;19943;-46
2022/09/07 07:54:14;;;;;;;5.15;2.10;;;;;;;33.64;34.72;101287.03;5204177;28;20143;-45
2022/09/07 07:56:48;;;;;;;10.80;2.80;;;;;;;33.53;34.72;101301.94;5203273;28;20476;-43
2022/09/07 07:59:21;;;;;;;5.38;2.17;;;;;;;33.65;34.91;101305.09;5202290;28;20079;-45
2022/09/07 08:01:53;;;;;;;;;;;;;;;34.14;34.43;101311.28;5201978;28;20443;-44
2022/09/07 08:04:26;;;;;;;12.10;2.70;;;;;;;34.30;34.20;101311.88;5208320;28;19943;-46
2022/09/07 08:06:58;;;;;;;3.90;2.00;;;;;;;34.34;33.89;101300.00;5199429;28;20373;-44
2022/09/07 08:09:32;;;;;;;12.85;3.00;;;;;;;34.49;33.63;101298.13;5197141;28;20048;-44
2022/09/07 08:12:06;;;;;;;4.40;2.63;;;;;;;34.89;33.13;101297.44;5202086;28;20212;-40
2022/09/07 08:14:39;;;;;;;3.75;2.97;;;;;;;35.43;32.57;101292.31;5200089;28;20032;-46
2022/09/07 08:17:14;;;;;;;4.80;2.78;;;;;;;36.00;32.21;101292.72;5196395;28;20044;-41
2022/09/07 08:19:47;;;;;;;9.70;3.00;;;;;;;36.25;32.08;101310.56;5197997;28;20056;-49
2022/09/07 08:22:19;;;;;;;6.57;2.63;;;;;;;36.13;31.74;101315.81;5199772;28;20040;-47
2022/09/07 08:24:51;;;;;;;2.83;2.30;;;;;;;36.17;31.71;101308.56;5198767;28;20061;-36
2022/09/07 08:27:25;;;;;;;4.78;2.58;;;;;;;36.08;31.94;101315.09;5201886;28;20123;-47
2022/09/07 08:29:58;;;;;;;8.43;3.10;;;;;;;36.04;31.84;101305.88;5199216;28;20053;-42
2022/09/07 08:32:30;;;;;;;10.98;3.38;;;;;;;35.97;32.03;101325.50;5201316;28;20435;-44
2022/09/07 08:35:03;;;;;;;10.52;3.33;;;;;;;35.95;31.77;101323.06;5197539;28;20524;-44
2022/09/07 08:37:35;;;;;;;5.32;2.90;;;;;;;35.45;32.22;101308.47;5200831;28;20339;-45
2022/09/07 08:40:14;;;;;;;5.90;2.95;;;;;;;35.25;32.12;101305.03;5201719;28;20048;-44
2022/09/07 08:43:01;;;;;;;5.68;3.03;;;;;;;35.45;31.70;101302.97;5193645;28;20409;-46
2022/09/07 08:45:38;;;;;;;4.15;3.30;;;;;;;35.73;31.66;101288.09;5197560;28;20335;-46
2022/09/07 08:48:42;;;;;;;3.17;2.83;;;;;;;35.82;31.06;101295.63;5203525;28;20040;-46
2022/09/07 08:51:21;;;;;;;6.60;3.65;;;;;;;35.42;30.89;101298.09;5195919;28;20115;-47
2022/09/07 08:53:54;;;;;;;6.05;3.13;;;;;;;34.91;31.46;101304.56;5199662;28;20087;-46
2022/09/07 08:56:33;;;;;;;5.03;3.58;;;;;;;34.73;31.63;101307.06;5199771;28;20044;-48
2022/09/07 08:59:20;;;;;;;5.53;3.22;;;;;;;34.44;31.41;101301.78;5198450;28;20048;-45
2022/09/07 09:01:52;;;;;;;5.10;3.22;;;;;;;34.40;31.49;101301.53;5197248;28;20505;-45
2022/09/07 09:04:28;;;;;;;6.30;3.08;;;;;;;34.32;31.28;101304.16;5198479;28;20044;-46
2022/09/07 09:07:10;;;;;;;3.78;2.60;;;;;;;34.21;31.47;101287.06;5197094;28;20048;-50
2022/09/07 09:10:05;;;;;;;5.50;2.95;;;;;;;34.12;31.31;101289.66;5197166;28;20496;-50
2022/09/07 09:12:57;;;;;;;5.10;3.05;;;;;;;34.07;31.55;101297.13;5197598;28;20036;-45
2022/09/07 09:15:51;;;;;;;5.53;3.30;;;;;;;33.92;31.61;101281.72;5196730;28;20095;-50
2022/09/07 09:18:57;;;;;;;6.22;3.05;;;;;;;33.70;32.26;101304.22;5198270;28;20124;-52
2022/09/07 09:21:30;;;;;;;11.82;3.30;;;;;;;33.15;32.40;101301.00;5190986;28;20032;-49
2022/09/07 09:24:13;;;;;;;6.18;3.22;;;;;;;32.60;33.19;101304.78;5198626;28;20166;-45
2022/09/07 09:26:50;;;;;;;3.83;3.45;;;;;;;31.96;34.07;101300.28;5193985;28;20133;-45
2022/09/07 09:29:23;;;;;;;8.27;3.28;;;;;;;30.98;35.85;101307.97;5197771;28;20044;-44
2022/09/07 09:31:57;;;;;;;7.97;3.50;;;;;;;29.90;37.11;101299.94;5216206;28;20565;-46
2022/09/07 09:34:30;;;;;;;5.68;3.70;;;;;;;29.32;37.91;101303.47;5195835;28;20447;-42
2022/09/07 09:37:02;;;;;;;4.53;3.28;;;;;;;28.96;38.59;101303.25;5198804;28;20510;-47
2022/09/07 09:39:35;;;;;;;;;;;;;;;28.61;39.25;101302.97;5196659;28;20435;-49
2022/09/07 09:42:17;;;;;;;5.65;3.63;;;;;;;28.21;39.73;101304.19;5197026;28;20030;-47
2022/09/07 09:44:51;;;;;;;6.30;3.60;;;;;;;27.93;40.15;101300.63;5194462;28;20191;-46
2022/09/07 09:47:32;;;;;;;7.10;3.75;;;;;;;27.98;39.95;101295.28;5194058;28;20076;-46
2022/09/07 09:50:20;;;;;;;7.68;3.22;;;;;;;28.02;40.18;101301.81;5196134;28;20541;-42
2022/09/07 09:52:54;;;;;;;6.57;3.03;;;;;;;27.85;40.42;101294.88;5199421;28;20079;-46
2022/09/07 09:55:30;;;;;;;8.10;3.13;;;;;;;27.83;40.65;101303.25;5197208;28;20076;-47
2022/09/07 09:58:05;;;;;;;5.72;2.80;;;;;;;27.72;40.73;101307.72;5200875;28;20055;-45
2022/09/07 10:00:38;;;;;;;5.10;3.22;;;;;;;27.49;40.96;101300.63;5196433;28;20171;-48
2022/09/07 10:03:19;;;;;;;7.63;2.95;;;;;;;27.49;41.06;101294.38;5195558;28;20099;-38
2022/09/07 10:05:52;;;;;;;7.43;3.45;;;;;;;27.64;40.94;101283.72;5195235;28;20036;-43
2022/09/07 10:08:27;;;;;;;11.80;3.40;;;;;;;27.73;40.87;101289.53;5197506;28;20380;-53
2022/09/07 10:11:03;;;;;;;4.18;2.80;;;;;;;27.76;40.97;101291.75;5202220;28;20569;-45
2022/09/07 10:13:42;;;;;;;6.03;3.25;;;;;;;27.76;40.97;101283.59;5202364;28;20037;-48
2022/09/07 10:16:14;;;;;;;8.25;3.10;;;;;;;27.76;41.15;101305.31;5199176;28;20186;-46
2022/09/07 10:18:58;;;;;;;7.05;3.55;;;;;;;27.67;41.30;101304.13;5200720;28;20163;-47
2022/09/07 10:21:31;;;;;;;8.05;3.50;;;;;;;27.67;41.32;101293.25;5200443;28;20374;-50
2022/09/07 10:24:15;;;;;;;6.35;2.97;;;;;;;27.89;41.12;101285.94;5202229;28;20048;-46
2022/09/07 10:26:49;;;;;;;3.40;2.28;;;;;;;28.07;40.82;101292.13;5199677;28;20566;-48
2022/09/07 10:29:29;;;;;;;5.97;3.20;;;;;;;28.01;40.90;101283.91;5200861;28;20052;-50
2022/09/07 10:32:24;;;;;;;11.07;2.65;;;;;;;28.04;40.91;101294.25;5200980;28;20485;-50
2022/09/07 10:35:12;;;;;;;4.68;2.00;;;;;;;28.18;40.90;101302.84;5202993;28;20178;-50
2022/09/07 10:37:59;;;;;;;5.93;2.70;;;;;;;27.89;41.07;101291.38;5195224;28;20436;-49
2022/09/07 10:40:37;;;;;;;7.20;2.17;;;;;;;27.63;41.49;101300.28;5202190;28;20175;-48
2022/09/07 10:43:20;;;;;;;6.15;1.98;;;;;;;27.22;42.07;101297.81;5202485;28;20126;-46
2022/09/07 10:46:21;;;;;;;4.50;2.38;;;;;;;26.88;42.53;101291.59;5196845;28;20052;-48
2022/09/07 10:49:13;;;;;;;6.97;1.98;;;;;;;26.81;42.47;101296.38;5194945;28;20440;-45
2022/09/07 10:52:06;;;;;;;11.52;2.10;;;;;;;26.88;42.40;101284.31;5199506;28;20408;-49
2022/09/07 10:54:49;;;;;;;5.63;2.17;;;;;;;26.84;42.49;101274.19;5202716;28;20041;-44
2022/09/07 10:57:32;;;;;;;;;;;;;;;27.02;42.17;101292.91;5207466;28;20079;-50
2022/09/07 11:00:10;;;;;;;5.90;2.20;;;;;;;26.99;42.03;101271.72;5206688;28;20046;-47
2022/09/07 11:03:01;;;;;;;8.15;3.28;;;;;;;26.91;42.30;101280.25;5195887;28;20051;-45
2022/09/07 11:05:43;;;;;;;6.85;2.70;;;;;;;26.90;42.34;101278.63;5199517;28;20496;-43
2022/09/07 11:08:33;;;;;;;9.60;2.15;;;;;;;26.85;42.48;101282.09;5198920;28;20420;-49
2022/09/07 11:11:16;;;;;;;7.30;2.35;;;;;;;26.66;42.75;101276.09;5202794;28;20490;-49
2022/09/07 11:13:53;;;;;;;8.70;1.92;;;;;;;26.69;43.03;101277.47;5198819;28;20043;-48
2022/09/07 11:16:30;;;;;;;10.40;1.80;;;;;;;26.78;42.99;101283.31;5199358;28;20524;-46
2022/09/07 11:19:05;;;;;;;5.97;1.55;;;;;;;26.79;42.56;101271.38;5203173;28;20067;-52
2022/09/07 11:21:58;;;;;;;6.53;1.67;;;;;;;27.02;42.30;101276.63;5196835;28;20475;-51
2022/09/07 11:24:39;;;;;;;9.07;1.67;;;;;;;27.22;41.94;101269.88;5198808;28;22194;-46
2022/09/07 11:27:18;;;;;;;8.68;2.10;;;;;;;27.33;41.92;101271.66;5201757;28;20040;-32
2022/09/07 11:29:57;;;;;;;5.95;1.67;;;;;;;27.03;42.23;101272.84;5196562;28;20079;-46
2022/09/07 11:32:33;;;;;;;4.90;1.90;;;;;;;26.82;42.42;101268.19;5203747;28;20124;-48
2022/09/07 11:35:15;;;;;;;3.67;1.35;;;;;;;26.71;42.39;101266.41;5199093;28;20247;-49
2022/09/07 11:37:54;;;;;;;11.80;2.75;;;;;;;26.88;42.20;101275.31;5197402;28;20500;-43
2022/09/07 11:40:31;;;;;;;8.80;2.08;;;;;;;27.08;41.88;101264.78;5197549;28;20040;-49
2022/09/07 11:43:14;;;;;;;3.83;1.42;;;;;;;27.28;41.61;101269.69;5201948;28;20521;-48
2022/09/07 11:45:52;;;;;;;6.72;1.38;;;;;;;27.34;41.43;101274.13;5197815;28;20444;-46
2022/09/07 11:48:29;;;;;;;9.45;2.25;;;;;;;27.36;41.15;101271.16;5199192;28;20450;-47
2022/09/07 11:51:05;;;;;;;11.73;2.50;;;;;;;27.53;41.05;101282.78;5205403;28;20155;-47
2022/09/07 11:57:57;;;;;;;9.82;1.98;;;;;;;27.55;40.73;101269.78;5201053;28;20472;-47
2022/09/07 12:00:40;;;;;;;8.88;2.53;;;;;;;27.54;40.53;101260.00;5196545;28;20119;-48
2022/09/07 12:03:56;;;;;;;6.93;2.10;;;;;;;27.48;40.69;101269.16;5196666;28;20869;-50
2022/09/07 12:07:03;;;;;;;11.05;1.98;;;;;;;27.53;40.22;101261.09;5182035;28;20371;-50
2022/09/07 12:09:55;;;;;;;7.90;1.98;;;;;;;27.49;39.98;101262.66;5186530;28;20372;-49
2022/09/07 12:12:55;;;;;;;7.72;2.70;;;;;;;27.43;39.96;101247.38;5176378;28;20053;-48
2022/09/07 12:15:38;;;;;;;7.75;2.03;;;;;;;27.64;39.78;101251.16;5174417;28;20033;-43
2022/09/07 12:18:31;;;;;;;;;;;;;;;27.64;39.63;101262.03;5177837;28;20091;-48
2022/09/07 12:21:04;;;;;;;8.65;2.17;;;;;;;27.44;39.87;101249.03;5174672;28;20385;-47
2022/09/07 12:23:37;;;;;;;5.38;1.77;;;;;;;27.42;39.68;101259.31;5182076;28;20079;-50